• Join FlightAware (Why Join?)
  • Login
  • US Flag 
06:18AM EDT


 

Airport Tracker/Info


-or-


 

Live Flight TrackerFlight Track Log ✈ SWA57 ✈ 17-Aug-2013 ✈ KSAN - KSFO

Flight Track Log - Related Links

Times and Time Zones

All times are in EDT time to prevent confusion due to time zone crossing. See the SWA57 flight status page for this flight to view local times or setup timezone preferences in your user account.

Time Position Orientation Groundspeed Altitude Reporting Facility
EDT Latitude Longitude Course Direction KTS MPH feet Rate Location/Type
03:12PM 32.7689 -117.2631 300° West 201 231 3,900  Level Los Angeles Center
03:13PM 32.8186 -117.3517 304° West 265 305 7,100 3,120 Climbing Los Angeles Center
03:14PM 32.8683 -117.4317 307° West 291 335 10,400 2,700 Climbing Los Angeles Center
03:15PM 32.9339 -117.5100 315° West 337 388 12,700 2,520 Climbing Los Angeles Center
03:16PM 33.0186 -117.5786 326° Northwest 363 418 15,700 2,460 Climbing Los Angeles Center
03:17PM 33.0814 -117.6800 306° West 373 429 17,900 2,220 Climbing Los Angeles Center
03:18PM 33.1472 -117.7825 308° West 385 443 20,400 2,460 Climbing Los Angeles Center
03:19PM 33.2111 -117.9222 299° West 398 458 23,000 2,100 Climbing Los Angeles Center
03:21PM 33.2956 -118.1819 291° West 419 482 27,000 1,860 Climbing Los Angeles Center
03:22PM 33.3728 -118.3011 308° West 447 514 28,900 1,800 Climbing Los Angeles Center
03:23PM 33.4492 -118.4244 307° West 454 522 30,800 2,160 Climbing Los Angeles Center
03:24PM 33.5208 -118.5528 304° West 459 528 33,400 2,220 Climbing Los Angeles Center
03:25PM 33.5933 -118.6758 305° West 450 518 35,400 1,920 Climbing Los Angeles Center
03:26PM 33.6792 -118.8172 306° West 435 501 37,400 1,200 Climbing Los Angeles Center
03:27PM 33.7517 -118.9353 306° West 437 503 38,000 240 Climbing Los Angeles Center
03:28PM 33.8403 -119.0406 315° West 446 513 38,000  Level Los Angeles Center
03:29PM 33.9331 -119.1408 318° Northwest 448 516 38,000  Level Los Angeles Center
03:30PM 34.0269 -119.2428 318° Northwest 453 521 38,000  Level Los Angeles Center
03:31PM 34.1197 -119.3425 318° Northwest 449 517 38,000  Level Los Angeles Center
03:32PM 34.2133 -119.4442 318° Northwest 450 518 38,000  Level Los Angeles Center
03:33PM 34.3256 -119.5656 318° Northwest 451 519 38,000  Level Los Angeles Center
03:34PM 34.4183 -119.6669 318° Northwest 451 519 38,000  Level Los Angeles Center
03:35PM 34.5128 -119.7683 319° Northwest 452 520 38,000  Level Los Angeles Center
03:37PM 34.6169 -119.8806 318° Northwest 454 522 38,000  Level Los Angeles Center
03:38PM 34.7100 -119.9825 318° Northwest 451 519 38,000  Level Los Angeles Center
03:39PM 34.8044 -120.0853 318° Northwest 453 521 38,000  Level Los Angeles Center
03:40PM 34.9003 -120.1889 318° Northwest 455 524 38,000  Level Los Angeles Center
03:41PM 34.9925 -120.2942 317° Northwest 458 527 38,000  Level Los Angeles Center
03:42PM 35.0903 -120.4003 318° Northwest 468 539 38,000  Level Los Angeles Center
03:43PM 35.2050 -120.5300 317° Northwest 480 552 38,000  Level Los Angeles Center
03:44PM 35.3011 -120.6394 317° Northwest 481 554 38,000  Level Los Angeles Center
03:45PM 35.3981 -120.7481 318° Northwest 477 549 38,000  Level Los Angeles Center
03:46PM 35.4950 -120.8575 317° Northwest 476 548 38,000  Level Los Angeles Center
03:47PM 35.6025 -120.9547 324° Northwest 480 552 38,000  Level Los Angeles Center
03:48PM 35.7244 -121.0592 325° Northwest 483 556 38,000 -420 Level Oakland Center
03:49PM 35.8344 -121.1544 325° Northwest 482 555 37,200 -1,080 Descending Oakland Center
03:50PM 35.9456 -121.2528 324° Northwest 488 562 35,900 -2,220 Descending Oakland Center
03:51PM 36.0597 -121.3514 325° Northwest 499 574 32,800 -2,640 Descending Oakland Center
03:52PM 36.1711 -121.4500 324° Northwest 493 567 30,500 -2,400 Descending Oakland Center
03:53PM 36.2781 -121.5442 325° Northwest 474 545 28,000 -2,400 Descending Oakland Center
03:54PM 36.3817 -121.6367 324° Northwest 459 528 25,700 -2,220 Descending Oakland Center
03:55PM 36.4811 -121.7242 325° Northwest 440 506 23,500 -2,220 Descending Oakland Center
03:56PM 36.5789 -121.8131 324° Northwest 425 489 21,200 -1,740 Descending Oakland Center
03:57PM 36.6711 -121.8969 324° Northwest 411 473 20,000 -1,200 Descending Oakland Center
03:58PM 36.7661 -121.9697 328° Northwest 399 459 18,800 -1,260 Descending Oakland Center
03:59PM 36.8808 -122.0256 339° North 363 418 17,400 -1,560 Descending Oakland Center
04:00PM 36.9100 -122.1308 289° West 322 371 15,700 -1,800 Descending Oakland Center
04:01PM 36.9478 -122.2275 296° West 319 367 13,800 -1,620 Descending Oakland Center
04:02PM 37.0250 -122.2753 334° Northwest 311 358 12,400 -1,620 Descending Oakland Center
04:03PM 37.1022 -122.3194 335° Northwest 305 351 10,600 -1,200 Descending Oakland Center
04:04PM 37.1764 -122.3639 334° Northwest 299 344 10,000 -660 Descending Oakland Center
04:05PM 37.2397 -122.4014 335° Northwest 263 303 9,300 -900 Descending Oakland Center
04:06PM 37.3014 -122.4322 338° Northwest 244 281 8,200 -720 Descending Oakland Center
04:07PM 37.3644 -122.4547 344° North 239 275 7,900 -600 Descending Oakland Center
04:08PM 37.3781 -122.3589 80° East 240 276 7,000 -960 Descending Oakland Center
04:09PM 37.3825 -122.2761 86° East 237 273 6,000 -1,080 Descending Oakland Center
04:10PM 37.3847 -122.1936 88° East 237 273 4,900 -540 Descending Oakland Center
04:11PM 37.4222 -122.1464 45° Northeast 210 242 5,000 -480 Climbing Oakland Center
04:12PM 37.4728 -122.1350 10° North 195 224 4,000 -900 Descending Oakland Center
04:13PM 37.5219 -122.1508 346° North 187 215 3,200 -720 Descending Oakland Center
04:14PM 37.5478 -122.2031 302° West 178 205 2,600 -780 Descending Oakland Center
04:15PM 37.5661 -122.2533 295° West 168 193 1,700 -840 Descending Oakland Center
04:16PM 37.5856 -122.2978 299° West 157 181 1,000 -720 Descending Oakland Center
04:17PM 37.6056 -122.3431 299° West 137 158 300 -480 Descending Oakland Center
04:18PM 37.6206 -122.3792 298° West 134 154 100 -240 Descending Oakland Center
04:21PM 37.6167 -122.3667 322° Northwest  Level FlightAware Approximate